Time;durP1;ratioP1;P1;durP2;ratioP2;P2;SDS_P1;SDS_P2;PMS_P1;PMS_P2;Temp;Humidity;BMP_temperature;BMP_pressure;BME280_temperature;BME280_humidity;BME280_pressure;Samples;Min_cycle;Max_cycle;Signal;HPM_P1;HPM_P2
2022/05/16 00:02:19;;;;;;;3.38;1.10;;;12.20;67.50;;;;;;5005977;28;20038;-81
2022/05/16 00:04:48;;;;;;;3.33;1.02;;;12.20;67.10;;;;;;5004033;28;20417;-81
2022/05/16 00:07:13;;;;;;;5.20;1.05;;;12.20;67.40;;;;;;4991810;28;20026;-81
2022/05/16 00:09:39;;;;;;;3.08;1.08;;;12.20;67.00;;;;;;5015237;28;20477;-81
2022/05/16 00:12:06;;;;;;;2.65;0.90;;;12.10;67.50;;;;;;5010960;28;20121;-82
2022/05/16 00:14:32;;;;;;;2.25;1.00;;;12.10;67.50;;;;;;4996538;28;20459;-81
2022/05/16 00:16:58;;;;;;;3.22;1.05;;;12.10;67.60;;;;;;5003980;28;20420;-82
2022/05/16 00:19:24;;;;;;;0.95;0.80;;;12.00;67.80;;;;;;4991892;28;20022;-82
2022/05/16 00:21:49;;;;;;;3.33;1.13;;;12.00;68.10;;;;;;5007970;28;20511;-81
2022/05/16 00:24:15;;;;;;;2.78;0.95;;;11.90;68.10;;;;;;5011587;28;20033;-81
2022/05/16 00:26:41;;;;;;;2.92;0.93;;;11.80;68.80;;;;;;4994459;28;20073;-81
2022/05/16 00:29:06;;;;;;;3.13;0.95;;;11.80;68.90;;;;;;5022041;28;20045;-82
2022/05/16 00:31:32;;;;;;;2.78;1.02;;;11.80;69.00;;;;;;4993632;28;20040;-81
2022/05/16 00:33:58;;;;;;;2.92;0.90;;;11.80;68.60;;;;;;4993483;28;20484;-81
2022/05/16 00:36:24;;;;;;;3.10;1.00;;;11.80;69.00;;;;;;4998437;28;20038;-81
2022/05/16 00:38:53;;;;;;;4.57;1.30;;;11.80;68.80;;;;;;5011589;28;20385;-81
2022/05/16 00:41:19;;;;;;;2.63;1.10;;;11.70;69.30;;;;;;5011024;28;20389;-81
2022/05/16 00:43:51;;;;;;;4.75;1.23;;;11.70;69.40;;;;;;5030088;28;20022;-81
2022/05/16 00:46:17;;;;;;;3.17;1.20;;;11.60;69.70;;;;;;4993052;28;20037;-81
2022/05/16 00:48:43;;;;;;;5.03;1.30;;;11.50;70.40;;;;;;4993612;28;20394;-82
2022/05/16 00:51:13;;;;;;;2.67;1.27;;;11.60;70.20;;;;;;4990739;28;20030;-81
2022/05/16 00:53:40;;;;;;;2.47;1.30;;;11.50;70.30;;;;;;5011785;28;20050;-81
2022/05/16 00:56:07;;;;;;;6.93;1.40;;;11.50;70.60;;;;;;4993810;28;20498;-81
2022/05/16 00:58:34;;;;;;;5.68;1.25;;;11.50;70.70;;;;;;5008673;28;20033;-81
2022/05/16 01:01:00;;;;;;;4.30;1.60;;;11.50;71.10;;;;;;5008258;28;20022;-81
2022/05/16 01:06:09;;;;;;;3.22;1.05;;;11.50;71.30;;;;;;5008046;28;20028;-81
2022/05/16 01:08:39;;;;;;;3.45;1.05;;;11.40;71.40;;;;;;5009899;28;20026;-81
2022/05/16 01:11:12;;;;;;;5.75;1.27;;;11.30;71.60;;;;;;5001988;28;20393;-82
2022/05/16 01:13:38;;;;;;;4.43;1.08;;;11.40;72.00;;;;;;5006418;28;20093;-81
2022/05/16 01:16:05;;;;;;;3.20;1.02;;;11.30;72.10;;;;;;4992083;28;20033;-81
2022/05/16 01:18:31;;;;;;;3.58;1.50;;;11.30;72.40;;;;;;5018917;28;20029;-81
2022/05/16 01:21:17;;;;;;;3.28;1.23;;;11.30;72.50;;;;;;4993018;28;20479;-81
2022/05/16 01:23:54;;;;;;;6.05;1.20;;;11.20;72.60;;;;;;5026741;28;20040;-81
2022/05/16 01:26:24;;;;;;;5.72;1.30;;;11.20;72.80;;;;;;4990749;28;20046;-81
2022/05/16 01:28:51;;;;;;;3.92;1.73;;;11.20;72.90;;;;;;4994994;28;20084;-81
2022/05/16 01:31:16;;;;;;;2.28;1.10;;;11.20;73.10;;;;;;5001941;28;20053;-81
2022/05/16 01:33:42;;;;;;;3.58;1.25;;;11.20;73.30;;;;;;4992472;28;20038;-81
2022/05/16 01:36:08;;;;;;;6.40;1.48;;;11.10;73.40;;;;;;4992174;28;20033;-81
2022/05/16 01:38:34;;;;;;;2.70;1.25;;;11.20;73.60;;;;;;4992588;28;20049;-81
2022/05/16 01:41:03;;;;;;;1.98;1.15;;;11.10;73.80;;;;;;4992027;28;20034;-81
2022/05/16 01:43:33;;;;;;;1.50;1.08;;;11.20;73.70;;;;;;4996820;28;20087;-80
2022/05/16 01:45:59;;;;;;;3.47;1.33;;;11.10;73.90;;;;;;5009365;28;20072;-81
2022/05/16 01:48:27;;;;;;;8.18;1.30;;;11.10;74.00;;;;;;5009135;28;20393;-81
2022/05/16 01:51:02;;;;;;;5.43;1.48;;;11.00;74.20;;;;;;4996911;28;20025;-81
2022/05/16 01:53:28;;;;;;;3.83;1.42;;;11.00;74.60;;;;;;4992751;28;20053;-81
2022/05/16 01:55:54;;;;;;;2.40;1.50;;;11.00;74.70;;;;;;4993583;28;20054;-81
2022/05/16 01:58:21;;;;;;;8.52;1.70;;;11.00;74.80;;;;;;5001854;28;20057;-81
2022/05/16 02:00:47;;;;;;;5.43;1.40;;;11.00;74.90;;;;;;5000599;28;20034;-81
2022/05/16 02:03:13;;;;;;;3.95;1.60;;;11.00;75.10;;;;;;5005778;28;20481;-81
2022/05/16 02:05:41;;;;;;;3.17;1.40;;;10.90;75.20;;;;;;4989103;28;20037;-81
2022/05/16 02:08:07;;;;;;;3.17;1.23;;;10.90;75.50;;;;;;4994458;28;20068;-81
2022/05/16 02:10:33;;;;;;;3.88;1.17;;;10.90;75.20;;;;;;5013924;28;20027;-81
2022/05/16 02:12:59;;;;;;;4.78;1.42;;;10.90;75.50;;;;;;4987857;28;20104;-81
2022/05/16 02:15:27;;;;;;;2.47;1.23;;;10.90;75.60;;;;;;4998134;28;20125;-81
2022/05/16 02:17:53;;;;;;;5.43;1.65;;;10.80;75.80;;;;;;5005988;28;20492;-81
2022/05/16 02:20:19;;;;;;;7.97;1.48;;;10.80;76.10;;;;;;4999158;28;20034;-81
2022/05/16 02:25:31;;;;;;;3.03;1.58;;;10.80;76.10;;;;;;5011166;28;20076;-81
2022/05/16 02:27:56;;;;;;;4.18;1.52;;;10.70;76.30;;;;;;5004853;28;20038;-81
2022/05/16 02:30:22;;;;;;;2.40;1.30;;;10.70;76.70;;;;;;5004126;28;20393;-81
2022/05/16 02:32:48;;;;;;;2.85;1.08;;;10.60;76.70;;;;;;5004886;28;20477;-81
2022/05/16 02:35:15;;;;;;;2.88;1.10;;;10.60;76.70;;;;;;5004426;28;20045;-81
2022/05/16 02:37:41;;;;;;;7.45;1.60;;;10.60;76.70;;;;;;5006178;28;20030;-81
2022/05/16 02:40:07;;;;;;;4.80;1.70;;;10.60;76.80;;;;;;5006483;28;20041;-81
2022/05/16 02:42:33;;;;;;;2.40;1.17;;;10.70;76.70;;;;;;4985836;28;20022;-81
2022/05/16 02:44:59;;;;;;;5.05;1.42;;;10.70;77.10;;;;;;5003347;28;20033;-81
2022/05/16 02:47:25;;;;;;;5.55;1.70;;;10.60;77.00;;;;;;5010438;28;20030;-81
2022/05/16 02:49:51;;;;;;;3.65;1.65;;;10.60;77.20;;;;;;5015914;28;20030;-81
2022/05/16 02:52:17;;;;;;;5.65;1.60;;;10.60;77.30;;;;;;5001418;28;20030;-81
2022/05/16 02:54:42;;;;;;;5.93;1.65;;;10.60;77.60;;;;;;5011577;28;20138;-81
2022/05/16 02:57:08;;;;;;;5.03;1.80;;;10.60;77.40;;;;;;4994622;28;20037;-81
2022/05/16 02:59:36;;;;;;;4.45;1.73;;;10.50;77.70;;;;;;5000491;28;20124;-81
2022/05/16 03:02:04;;;;;;;6.00;1.80;;;10.50;78.10;;;;;;4992003;28;20053;-81
2022/05/16 03:04:31;;;;;;;4.93;1.80;;;10.40;78.20;;;;;;4996578;28;20018;-81
2022/05/16 03:06:58;;;;;;;1.55;1.02;;;10.40;78.50;;;;;;4994426;28;20034;-81
2022/05/16 03:09:25;;;;;;;5.13;1.50;;;10.40;78.60;;;;;;5011386;28;20120;-81
2022/05/16 03:11:52;;;;;;;3.95;1.50;;;10.30;78.70;;;;;;5008570;28;20040;-81
2022/05/16 03:14:17;;;;;;;6.60;1.70;;;10.30;79.10;;;;;;4996650;28;20497;-81
2022/05/16 03:16:43;;;;;;;3.22;1.50;;;10.40;79.20;;;;;;4994939;28;20037;-81
2022/05/16 03:19:08;;;;;;;6.60;1.80;;;10.40;79.20;;;;;;5002942;28;20032;-81
2022/05/16 03:21:34;;;;;;;5.53;1.70;;;10.30;79.10;;;;;;5008504;28;20029;-81
2022/05/16 03:24:00;;;;;;;5.38;1.63;;;10.30;79.30;;;;;;5011649;28;20543;-81
2022/05/16 03:26:26;;;;;;;3.90;1.33;;;10.30;79.40;;;;;;5002856;28;20030;-81
2022/05/16 03:28:52;;;;;;;4.28;1.73;;;10.30;79.50;;;;;;5012600;28;20044;-81
2022/05/16 03:31:18;;;;;;;7.20;1.52;;;10.30;79.70;;;;;;5006830;28;20555;-81
2022/05/16 03:33:43;;;;;;;4.57;2.10;;;10.30;79.90;;;;;;5009375;28;20124;-81
2022/05/16 03:36:10;;;;;;;6.50;1.75;;;10.30;79.90;;;;;;5008875;28;20108;-81
2022/05/16 03:41:20;;;;;;;5.72;1.83;;;10.30;80.00;;;;;;5005510;28;20037;-81
2022/05/16 03:43:46;;;;;;;5.95;1.67;;;10.30;80.10;;;;;;5015670;28;20037;-81
2022/05/16 03:46:12;;;;;;;4.70;1.70;;;10.30;80.30;;;;;;5011174;28;20109;-81
2022/05/16 03:48:38;;;;;;;5.53;1.48;;;10.20;80.10;;;;;;4994149;28;20034;-81
2022/05/16 03:51:06;;;;;;;3.45;1.75;;;10.30;80.20;;;;;;4994538;28;20159;-82
2022/05/16 03:53:32;;;;;;;8.48;1.77;;;10.30;80.50;;;;;;4982178;28;20059;-82
2022/05/16 03:55:58;;;;;;;6.25;2.00;;;10.30;80.60;;;;;;4992981;28;20396;-81
2022/05/16 03:58:24;;;;;;;3.95;1.83;;;10.30;80.50;;;;;;5001196;28;20038;-81
2022/05/16 04:00:49;;;;;;;6.38;1.67;;;10.30;80.50;;;;;;4988618;28;20509;-81
2022/05/16 04:03:15;;;;;;;4.70;1.73;;;10.40;80.40;;;;;;4992748;28;20026;-81
2022/05/16 04:05:42;;;;;;;6.78;1.67;;;10.40;80.30;;;;;;4992296;28;20030;-81
2022/05/16 04:08:08;;;;;;;4.68;1.55;;;10.40;80.40;;;;;;4991149;28;20076;-81
2022/05/16 04:10:34;;;;;;;7.85;1.83;;;10.40;80.30;;;;;;4987204;28;20458;-81
2022/05/16 04:12:59;;;;;;;4.93;1.80;;;10.50;80.30;;;;;;5004153;28;20093;-82
2022/05/16 04:15:25;;;;;;;5.78;2.13;;;10.40;80.40;;;;;;5005690;28;20025;-81
2022/05/16 04:17:51;;;;;;;5.72;2.13;;;10.40;80.40;;;;;;4992299;28;20451;-81
2022/05/16 04:20:19;;;;;;;4.30;1.55;;;10.40;80.40;;;;;;4988325;28;20501;-81
2022/05/16 04:22:45;;;;;;;4.45;1.90;;;10.40;80.50;;;;;;4990159;28;20117;-81
2022/05/16 04:25:15;;;;;;;4.72;1.80;;;10.50;80.50;;;;;;4991715;28;20014;-81
2022/05/16 04:27:41;;;;;;;8.05;2.42;;;10.50;80.30;;;;;;4990175;28;20061;-81
2022/05/16 04:30:08;;;;;;;4.60;1.80;;;10.60;80.60;;;;;;4995957;28;20080;-81
2022/05/16 04:32:34;;;;;;;7.63;2.00;;;10.60;80.70;;;;;;4992679;28;20512;-81
2022/05/16 04:35:01;;;;;;;6.63;1.45;;;10.60;80.80;;;;;;5008259;28;20018;-80
2022/05/16 04:37:32;;;;;;;6.63;1.92;;;10.60;80.80;;;;;;4988559;28;20039;-81
2022/05/16 04:40:01;;;;;;;4.75;1.75;;;10.60;80.80;;;;;;5009883;28;20054;-81
2022/05/16 04:42:44;;;;;;;3.25;1.55;;;10.70;80.30;;;;;;4993864;28;20117;-82
2022/05/16 04:45:19;;;;;;;6.22;2.08;;;10.80;80.00;;;;;;4993726;28;20030;-82
2022/05/16 04:47:48;;;;;;;4.82;1.70;;;10.80;80.10;;;;;;4993803;28;20133;-82
2022/05/16 04:50:16;;;;;;;4.85;2.03;;;11.00;79.80;;;;;;4992528;28;20042;-81
2022/05/16 04:52:42;;;;;;;7.68;1.98;;;11.00;80.00;;;;;;4989910;28;20065;-82
2022/05/16 04:55:09;;;;;;;4.35;1.80;;;11.00;79.60;;;;;;4999917;28;20116;-82
2022/05/16 04:57:34;;;;;;;4.75;1.58;;;11.10;79.60;;;;;;5017521;28;20030;-82
2022/05/16 05:00:00;;;;;;;4.00;1.55;;;11.10;79.60;;;;;;5009238;28;20390;-82
2022/05/16 05:02:26;;;;;;;5.72;1.80;;;11.20;79.00;;;;;;4998615;28;20030;-82
2022/05/16 05:04:52;;;;;;;4.45;1.77;;;11.20;79.00;;;;;;5002796;28;20028;-82
2022/05/16 05:07:17;;;;;;;5.93;2.00;;;11.30;79.20;;;;;;5006811;28;20022;-82
2022/05/16 05:15:15;;;;;;;5.15;1.67;;;11.50;79.10;;;;;;5002632;28;20095;-82
2022/05/16 05:17:41;;;;;;;6.35;2.33;;;11.60;78.30;;;;;;4997728;28;20034;-83
2022/05/16 05:20:13;;;;;;;6.65;1.95;;;11.70;77.60;;;;;;4997133;28;20037;-83
2022/05/16 05:22:40;;;;;;;5.82;2.30;;;11.80;78.10;;;;;;4993182;28;20485;-82
2022/05/16 05:25:09;;;;;;;4.45;1.90;;;11.80;78.30;;;;;;5010306;28;20028;-82
2022/05/16 05:27:35;;;;;;;8.88;1.77;;;12.00;77.50;;;;;;5014302;28;20033;-83
2022/05/16 05:30:01;;;;;;;4.72;1.67;;;12.00;77.20;;;;;;4992036;28;20505;-84
2022/05/16 05:32:26;;;;;;;6.75;1.67;;;12.10;76.90;;;;;;4984711;28;20069;-84
2022/05/16 05:34:52;;;;;;;6.88;1.80;;;12.20;76.10;;;;;;5010992;28;20124;-84
2022/05/16 05:37:17;;;;;;;6.93;1.90;;;12.30;76.20;;;;;;5011419;28;20038;-82
2022/05/16 05:39:43;;;;;;;4.18;1.80;;;12.30;75.90;;;;;;5015243;28;20520;-84
2022/05/16 05:42:08;;;;;;;5.50;1.70;;;12.50;75.50;;;;;;5013252;28;20029;-83
2022/05/16 05:44:34;;;;;;;4.72;1.80;;;12.60;75.20;;;;;;5015395;28;20033;-83
2022/05/16 05:47:01;;;;;;;6.82;1.90;;;12.70;74.80;;;;;;4998342;28;20037;-82
2022/05/16 05:49:26;;;;;;;5.60;1.83;;;12.80;75.00;;;;;;5012155;28;20045;-82
2022/05/16 05:51:52;;;;;;;9.27;1.83;;;12.80;74.60;;;;;;4996314;28;20030;-83
2022/05/16 05:54:17;;;;;;;5.22;1.77;;;13.00;73.90;;;;;;4997722;28;20042;-82
2022/05/16 05:56:43;;;;;;;5.18;1.70;;;13.10;73.60;;;;;;5013840;28;20030;-82
2022/05/16 05:59:08;;;;;;;5.47;1.90;;;13.20;72.90;;;;;;5010596;28;20030;-83
2022/05/16 06:01:34;;;;;;;5.63;2.15;;;13.40;73.50;;;;;;5002893;28;20032;-82
2022/05/16 06:03:59;;;;;;;4.38;1.88;;;13.40;72.40;;;;;;5016868;28;20022;-82
2022/05/16 06:06:25;;;;;;;4.28;1.67;;;13.60;73.40;;;;;;5004016;28;20029;-81
2022/05/16 06:08:51;;;;;;;4.15;1.58;;;13.80;73.40;;;;;;5025047;28;20073;-82
2022/05/16 06:11:16;;;;;;;6.10;1.83;;;13.80;71.40;;;;;;5001710;28;20022;-81
2022/05/16 06:13:42;;;;;;;2.78;1.40;;;13.90;72.20;;;;;;5002453;28;20100;-82
2022/05/16 06:16:08;;;;;;;10.95;1.95;;;14.00;71.20;;;;;;4997556;28;20034;-81
2022/05/16 06:18:34;;;;;;;4.47;1.83;;;14.20;71.20;;;;;;5028761;28;20381;-81
2022/05/16 06:21:00;;;;;;;7.72;1.70;;;14.30;71.50;;;;;;5003485;28;20021;-82
2022/05/16 06:23:25;;;;;;;5.75;1.77;;;14.40;69.70;;;;;;5018687;28;20033;-83
2022/05/16 06:25:52;;;;;;;4.00;1.60;;;14.60;68.90;;;;;;5020016;28;20045;-83
2022/05/16 06:28:24;;;;;;;3.80;1.67;;;14.80;70.80;;;;;;5011851;28;20060;-83
2022/05/16 06:30:51;;;;;;;6.10;1.65;;;14.90;70.20;;;;;;5007160;28;20057;-83
2022/05/16 06:33:22;;;;;;;6.45;1.67;;;15.00;69.30;;;;;;5011184;28;20022;-83
2022/05/16 06:35:48;;;;;;;3.08;1.10;;;15.20;68.80;;;;;;5030384;28;20400;-83
2022/05/16 06:38:20;;;;;;;8.23;1.70;;;15.30;68.80;;;;;;5005608;28;20026;-83
2022/05/16 06:40:46;;;;;;;;;;;15.40;66.90;;;;;;5005839;28;20049;-83
2022/05/16 06:43:12;;;;;;;3.55;1.55;;;15.60;66.90;;;;;;5022174;28;20209;-83
2022/05/16 06:45:39;;;;;;;5.03;1.40;;;15.70;66.60;;;;;;5023047;28;20125;-84
2022/05/16 06:48:05;;;;;;;3.90;1.60;;;16.10;67.00;;;;;;5003072;28;20068;-83
2022/05/16 06:50:32;;;;;;;3.15;1.70;;;16.10;64.20;;;;;;5016765;28;20026;-83
2022/05/16 06:52:59;;;;;;;6.53;1.83;;;16.10;64.00;;;;;;5011002;28;20100;-83
2022/05/16 06:55:25;;;;;;;6.40;1.75;;;16.50;65.40;;;;;;5010634;28;20022;-84
2022/05/16 06:57:50;;;;;;;5.57;1.70;;;16.50;64.00;;;;;;5001975;28;20065;-83
2022/05/16 07:00:17;;;;;;;4.22;1.80;;;16.80;63.50;;;;;;5004355;28;20053;-84
2022/05/16 07:02:42;;;;;;;3.60;1.58;;;17.00;63.00;;;;;;5003544;28;20035;-83
2022/05/16 07:05:09;;;;;;;7.85;1.80;;;17.20;63.50;;;;;;5003191;28;20490;-83
2022/05/16 07:07:34;;;;;;;10.95;1.60;;;17.40;62.60;;;;;;4994258;28;20035;-85
2022/05/16 07:10:01;;;;;;;3.65;1.42;;;17.50;61.10;;;;;;4991901;28;20037;-85
2022/05/16 07:12:27;;;;;;;4.22;1.30;;;17.60;61.20;;;;;;4994488;28;20058;-84
2022/05/16 07:14:53;;;;;;;3.05;1.30;;;17.80;60.00;;;;;;4996769;28;20045;-84
2022/05/16 07:17:19;;;;;;;5.45;1.70;;;18.00;59.60;;;;;;5004785;28;20101;-84
2022/05/16 07:19:46;;;;;;;4.35;1.60;;;18.40;60.70;;;;;;4997330;28;20034;-85
2022/05/16 07:22:15;;;;;;;3.45;1.35;;;18.60;60.20;;;;;;4995108;28;20033;-82
2022/05/16 07:24:42;;;;;;;4.60;1.73;;;18.50;56.90;;;;;;4994544;28;20030;-84
2022/05/16 07:29:52;;;;;;;4.82;1.50;;;18.80;55.60;;;;;;4995740;28;20096;-84
2022/05/16 07:32:18;;;;;;;4.10;1.42;;;18.90;57.60;;;;;;4997209;28;20073;-84
2022/05/16 07:34:44;;;;;;;2.95;1.23;;;19.30;57.20;;;;;;4997908;28;20038;-85
2022/05/16 07:37:10;;;;;;;6.43;2.08;;;19.40;56.80;;;;;;4993294;28;20442;-85
2022/05/16 07:39:36;;;;;;;3.85;1.42;;;19.20;56.10;;;;;;4993889;28;20045;-84
2022/05/16 07:42:03;;;;;;;5.90;1.52;;;19.10;58.20;;;;;;4989458;28;20030;-85
2022/05/16 07:44:29;;;;;;;4.22;1.70;;;19.10;57.80;;;;;;4990762;28;20030;-84
2022/05/16 07:46:55;;;;;;;3.15;1.38;;;19.40;56.80;;;;;;4991622;28;20134;-84
2022/05/16 07:49:21;;;;;;;5.53;1.30;;;19.50;57.80;;;;;;5004281;28;20025;-85
2022/05/16 07:51:46;;;;;;;2.72;1.27;;;19.70;56.40;;;;;;4990526;28;20501;-85
2022/05/16 07:54:12;;;;;;;4.80;1.73;;;20.20;54.80;;;;;;4993295;28;20611;-84
2022/05/16 07:56:39;;;;;;;5.05;1.60;;;20.50;55.80;;;;;;4995903;28;20030;-84
2022/05/16 07:59:04;;;;;;;4.97;1.77;;;20.50;53.70;;;;;;4993298;28;20033;-84
2022/05/16 08:01:36;;;;;;;6.32;1.73;;;20.80;52.70;;;;;;5006443;28;20010;-85
2022/05/16 08:04:06;;;;;;;3.92;1.40;;;20.60;52.40;;;;;;5003448;28;20095;-85
2022/05/16 08:06:35;;;;;;;5.43;1.80;;;21.10;53.50;;;;;;4997249;28;20062;-84
2022/05/16 08:11:46;;;;;;;4.80;1.30;;;21.10;51.20;;;;;;4986858;28;20515;-85
2022/05/16 08:14:12;;;;;;;4.13;1.23;;;21.40;52.10;;;;;;4990859;28;20035;-84
2022/05/16 08:16:37;;;;;;;4.93;1.90;;;21.50;50.40;;;;;;5004804;28;20583;-84
2022/05/16 08:19:03;;;;;;;4.30;1.73;;;21.70;49.60;;;;;;5007194;28;20053;-84
2022/05/16 08:21:29;;;;;;;4.15;1.27;;;22.20;51.00;;;;;;5003956;28;20022;-84
2022/05/16 08:23:55;;;;;;;4.25;1.50;;;21.80;48.10;;;;;;4990875;28;20029;-84
2022/05/16 08:26:21;;;;;;;3.17;1.33;;;22.00;49.70;;;;;;4989879;28;20462;-84
2022/05/16 08:28:46;;;;;;;3.92;1.50;;;22.60;47.80;;;;;;4988272;28;20034;-83
2022/05/16 08:31:12;;;;;;;5.82;1.30;;;22.70;45.80;;;;;;4998173;28;20541;-83
2022/05/16 08:33:39;;;;;;;4.28;1.60;;;23.10;47.00;;;;;;4993314;28;20382;-84
2022/05/16 08:41:50;;;;;;;3.85;1.48;;;21.70;46.70;;;;;;4980156;28;20049;-83
2022/05/16 08:44:28;;;;;;;4.18;1.45;;;22.00;47.20;;;;;;4993948;28;20504;-83
2022/05/16 08:47:12;;;;;;;3.35;1.20;;;22.10;45.60;;;;;;4990251;28;20106;-84
2022/05/16 08:49:43;;;;;;;5.18;1.42;;;22.60;49.10;;;;;;4987172;28;20099;-84
2022/05/16 08:52:27;;;;;;;4.55;0.93;;;22.40;44.70;;;;;;4988926;28;20057;-83
2022/05/16 08:55:10;;;;;;;4.22;1.50;;;22.80;47.50;;;;;;5005714;28;20157;-84
2022/05/16 08:57:45;;;;;;;2.47;1.05;;;23.50;47.10;;;;;;4989722;28;20113;-83
2022/05/16 09:00:19;;;;;;;4.35;1.20;;;23.70;43.30;;;;;;4985801;28;20442;-83
2022/05/16 09:02:48;;;;;;;3.65;1.58;;;23.60;44.30;;;;;;5007165;28;20443;-84
2022/05/16 09:05:32;;;;;;;4.15;1.20;;;24.20;43.50;;;;;;4986794;28;20018;-84
2022/05/16 09:07:58;;;;;;;3.78;1.48;;;23.60;42.60;;;;;;4983648;28;20061;-83
2022/05/16 09:10:58;;;;;;;3.60;1.33;;;23.70;45.00;;;;;;4987561;28;20049;-83
2022/05/16 09:13:53;;;;;;;3.60;1.52;;;22.60;43.70;;;;;;4993845;28;20030;-83
2022/05/16 09:16:37;;;;;;;3.45;1.42;;;23.80;43.70;;;;;;5000868;28;20042;-85
2022/05/16 09:19:30;;;;;;;1.95;1.10;;;23.50;41.20;;;;;;4988175;28;20049;-84
2022/05/16 09:22:08;;;;;;;3.28;1.05;;;23.00;43.80;;;;;;5002789;28;20093;-85
2022/05/16 09:24:45;;;;;;;3.85;1.50;;;23.40;42.70;;;;;;4985710;28;20026;-85
2022/05/16 09:30:21;;;;;;;4.22;1.38;;;23.20;40.30;;;;;;4980054;28;20049;-85
2022/05/16 09:32:59;;;;;;;3.35;1.20;;;23.10;42.80;;;;;;4992077;28;20049;-85
2022/05/16 09:35:28;;;;;;;5.68;1.60;;;24.10;44.40;;;;;;4987158;28;20023;-85
2022/05/16 09:37:57;;;;;;;5.05;1.25;;;24.30;41.50;;;;;;4981403;28;20030;-85
2022/05/16 09:40:37;;;;;;;4.45;1.40;;;24.10;43.60;;;;;;4982776;28;20038;-85
2022/05/16 09:43:19;;;;;;;4.00;1.40;;;23.70;42.00;;;;;;4990021;28;20096;-85
2022/05/16 09:45:49;;;;;;;6.55;1.17;;;24.00;41.30;;;;;;4988126;28;20098;-86
2022/05/16 09:48:19;;;;;;;3.15;1.05;;;24.20;40.60;;;;;;4990110;28;20019;-85
2022/05/16 09:51:05;;;;;;;3.80;1.35;;;24.00;39.00;;;;;;4982478;28;20541;-85
2022/05/16 09:53:37;;;;;;;2.67;1.35;;;24.20;39.60;;;;;;4999444;28;20041;-84
2022/05/16 09:56:09;;;;;;;2.85;1.17;;;25.00;40.40;;;;;;4988474;28;20061;-85
2022/05/16 09:58:47;;;;;;;2.83;1.20;;;25.20;39.30;;;;;;4990930;28;20029;-85
2022/05/16 10:01:27;;;;;;;6.45;1.33;;;25.10;37.90;;;;;;4983677;28;20102;-85
2022/05/16 10:03:52;;;;;;;2.95;1.38;;;25.20;39.80;;;;;;4989073;28;20066;-85
2022/05/16 10:06:35;;;;;;;4.45;1.50;;;24.70;36.80;;;;;;5004380;28;20026;-86
2022/05/16 10:09:07;;;;;;;3.45;1.10;;;24.80;38.10;;;;;;4988016;28;20045;-84
2022/05/16 10:11:34;;;;;;;4.00;1.40;;;26.00;37.40;;;;;;4989535;28;20497;-84
2022/05/16 10:14:00;;;;;;;4.45;1.30;;;26.00;38.30;;;;;;4984966;28;20402;-84
2022/05/16 10:16:29;;;;;;;4.20;1.35;;;26.50;36.70;;;;;;4991228;28;20046;-85
2022/05/16 10:19:01;;;;;;;4.45;1.60;;;25.30;36.00;;;;;;4997692;28;20061;-85
2022/05/16 10:21:35;;;;;;;5.18;1.20;;;25.80;37.00;;;;;;4989177;28;20038;-85
2022/05/16 10:24:04;;;;;;;1.70;0.90;;;26.00;36.30;;;;;;4990978;28;20394;-86
2022/05/16 10:26:35;;;;;;;2.88;1.23;;;26.60;37.60;;;;;;4989616;28;20058;-86
2022/05/16 10:29:08;;;;;;;2.33;1.20;;;26.70;37.20;;;;;;4989833;28;20034;-86
2022/05/16 10:34:46;;;;;;;4.32;1.40;;;25.60;37.20;;;;;;4987462;28;20563;-85
2022/05/16 10:37:13;;;;;;;3.90;1.20;;;26.00;35.70;;;;;;5003275;28;20030;-86
2022/05/16 10:39:43;;;;;;;3.95;1.20;;;25.80;36.50;;;;;;5003266;28;20049;-85
2022/05/16 10:42:26;;;;;;;5.15;1.27;;;26.10;36.80;;;;;;4990710;28;20032;-85
2022/05/16 10:44:59;;;;;;;5.38;1.67;;;26.90;35.70;;;;;;4990912;28;20600;-85
2022/05/16 10:47:31;;;;;;;6.53;1.42;;;27.10;34.80;;;;;;5004917;28;20117;-85
2022/05/16 10:50:20;;;;;;;5.68;1.60;;;26.80;34.50;;;;;;4989320;28;20035;-85
2022/05/16 10:53:21;;;;;;;3.10;1.25;;;27.20;34.60;;;;;;4993876;28;20089;-85
2022/05/16 10:55:50;;;;;;;4.85;1.38;;;26.90;33.30;;;;;;4997182;28;20124;-85
2022/05/16 10:58:51;;;;;;;3.83;1.17;;;26.90;34.30;;;;;;5010317;28;20033;-85
2022/05/16 11:01:21;;;;;;;;;;;27.00;33.80;;;;;;5003907;28;20034;-85
2022/05/16 11:04:14;;;;;;;2.63;1.13;;;27.20;34.50;;;;;;4993811;28;19921;-85
2022/05/16 11:06:45;;;;;;;5.45;1.35;;;27.10;34.40;;;;;;4996229;28;20022;-85
2022/05/16 11:09:15;;;;;;;4.53;1.48;;;27.10;33.60;;;;;;5002260;28;20084;-85
2022/05/16 11:11:43;;;;;;;4.50;1.40;;;26.60;34.00;;;;;;5015632;28;20113;-85
2022/05/16 11:14:26;;;;;;;4.88;1.27;;;26.00;34.80;;;;;;5006917;28;20116;-85
2022/05/16 11:16:56;;;;;;;1.70;0.98;;;26.40;35.30;;;;;;5012518;28;20065;-86
2022/05/16 11:20:04;;;;;;;5.30;1.67;;;27.30;33.90;;;;;;4997952;28;20063;-86
2022/05/16 11:22:40;;;;;;;3.92;1.10;;;27.00;33.60;;;;;;4935997;29;20055;-85
2022/05/16 11:25:25;;;;;;;4.97;1.42;;;27.20;34.00;;;;;;5007860;28;20402;-85
2022/05/16 11:28:10;;;;;;;4.45;1.23;;;27.60;34.90;;;;;;5000221;28;20032;-85
2022/05/16 11:30:51;;;;;;;5.25;1.40;;;27.70;32.10;;;;;;5018693;28;20508;-86
2022/05/16 11:33:33;;;;;;;8.60;1.60;;;27.80;33.10;;;;;;5004944;28;20038;-85
2022/05/16 11:36:17;;;;;;;5.75;1.23;;;27.30;34.20;;;;;;5010978;28;20504;-85
2022/05/16 11:38:48;;;;;;;3.13;1.05;;;27.40;33.40;;;;;;5009898;28;20041;-85
2022/05/16 11:41:40;;;;;;;6.18;1.65;;;28.50;33.40;;;;;;5017947;28;20110;-85
2022/05/16 11:44:24;;;;;;;4.57;1.30;;;27.50;32.80;;;;;;5008952;28;20089;-85
2022/05/16 11:47:14;;;;;;;2.47;1.08;;;28.70;33.30;;;;;;5008642;28;20030;-85
2022/05/16 11:49:57;;;;;;;5.05;1.65;;;28.60;32.30;;;;;;5004963;28;20034;-85
2022/05/16 11:52:36;;;;;;;2.45;1.20;;;28.60;33.10;;;;;;5003104;28;20056;-85
2022/05/16 12:00:31;;;;;;;5.60;1.33;;;29.00;31.80;;;;;;5005483;28;20109;-85
2022/05/16 12:00:50;;;;;;;5.82;1.70;;;29.50;30.90;;;;;;5011388;28;20037;-85
2022/05/16 12:03:19;;;;;;;5.10;1.45;;;29.40;31.00;;;;;;5001173;28;20179;-85
2022/05/16 12:05:52;;;;;;;2.95;1.30;;;29.90;30.90;;;;;;4992648;28;20149;-85
2022/05/16 12:08:33;;;;;;;2.97;1.33;;;29.30;29.90;;;;;;5007481;28;20453;-85
2022/05/16 12:11:13;;;;;;;2.63;1.33;;;28.50;31.80;;;;;;5013084;28;20026;-85
2022/05/16 12:14:23;;;;;;;3.40;1.40;;;28.00;31.30;;;;;;5002994;28;20104;-85
2022/05/16 12:17:18;;;;;;;4.43;1.40;;;28.20;32.10;;;;;;4986720;28;20045;-86
2022/05/16 12:19:51;;;;;;;3.90;1.10;;;28.50;32.90;;;;;;5012349;28;20038;-85
2022/05/16 12:22:21;;;;;;;4.85;1.25;;;28.90;30.70;;;;;;4992008;28;20030;-85
2022/05/16 12:24:53;;;;;;;3.45;1.38;;;29.10;31.50;;;;;;5001523;28;20153;-86
2022/05/16 12:28:12;;;;;;;3.60;1.20;;;28.90;31.80;;;;;;5006717;28;20031;-86
2022/05/16 12:30:37;;;;;;;6.03;1.40;;;28.80;31.40;;;;;;4988134;28;20022;-86
2022/05/16 12:33:04;;;;;;;2.42;1.05;;;28.40;32.40;;;;;;5003543;28;20433;-86
2022/05/16 12:35:42;;;;;;;3.75;1.30;;;28.50;32.70;;;;;;4993814;28;20080;-86
2022/05/16 12:38:12;;;;;;;4.13;1.50;;;29.10;31.70;;;;;;5000894;28;20481;-86
2022/05/16 12:41:38;;;;;;;2.20;1.20;;;28.50;31.80;;;;;;5021135;28;20030;-85
2022/05/16 12:44:19;;;;;;;3.95;1.48;;;28.30;33.20;;;;;;5010544;28;20049;-85
2022/05/16 12:46:53;;;;;;;3.50;1.48;;;27.90;33.60;;;;;;4982791;28;20038;-86
2022/05/16 12:49:33;;;;;;;3.88;1.52;;;27.60;32.60;;;;;;5005035;28;20029;-86
2022/05/16 12:52:19;;;;;;;3.63;1.13;;;27.70;33.90;;;;;;4999544;28;20084;-86
2022/05/16 12:55:07;;;;;;;4.05;1.55;;;28.30;33.60;;;;;;4998032;28;20057;-86
2022/05/16 12:57:36;;;;;;;3.47;1.40;;;27.90;34.10;;;;;;5014626;28;20025;-85
2022/05/16 13:00:14;;;;;;;3.25;1.58;;;27.70;34.30;;;;;;5017215;28;20087;-85
2022/05/16 13:03:14;;;;;;;3.20;1.30;;;28.10;35.10;;;;;;5000935;28;20030;-85
2022/05/16 13:05:46;;;;;;;5.43;1.65;;;27.20;33.30;;;;;;5010030;28;20409;-85
2022/05/16 13:08:37;;;;;;;3.47;1.40;;;27.10;34.10;;;;;;5006257;28;20025;-86
2022/05/16 13:11:21;;;;;;;3.83;1.00;;;27.20;34.20;;;;;;5012810;28;20057;-85
2022/05/16 13:14:05;;;;;;;2.97;1.38;;;26.90;34.10;;;;;;5006847;28;20025;-85
2022/05/16 13:16:39;;;;;;;4.32;1.40;;;27.40;35.00;;;;;;5012266;28;20049;-85
2022/05/16 13:19:19;;;;;;;7.10;1.42;;;27.50;34.80;;;;;;5003724;28;20037;-85
2022/05/16 13:21:53;;;;;;;3.85;1.35;;;27.70;36.00;;;;;;5007935;28;20145;-85
2022/05/16 13:24:20;;;;;;;5.63;1.70;;;28.20;34.90;;;;;;5010533;28;20440;-86
2022/05/16 13:29:35;;;;;;;4.47;1.48;;;27.10;33.50;;;;;;5012875;28;20117;-85
2022/05/16 13:32:13;;;;;;;3.05;1.25;;;27.80;35.10;;;;;;5010572;28;20076;-85
2022/05/16 13:34:44;;;;;;;3.95;1.70;;;28.80;34.70;;;;;;5009651;28;20021;-85
2022/05/16 13:37:10;;;;;;;;;;;28.40;35.10;;;;;;4995048;28;20485;-85
2022/05/16 13:39:41;;;;;;;5.70;1.40;;;28.70;34.60;;;;;;5018508;28;19964;-85
2022/05/16 13:42:07;;;;;;;7.95;1.70;;;28.90;32.60;;;;;;4992920;28;20449;-86
2022/05/16 13:44:39;;;;;;;4.22;1.38;;;28.90;32.90;;;;;;4992885;28;20112;-86